Time;durP1;ratioP1;P1;durP2;ratioP2;P2;SDS_P1;SDS_P2;PMS_P1;PMS_P2;Temp;Humidity;BMP_temperature;BMP_pressure;BME280_temperature;BME280_humidity;BME280_pressure;Samples;Min_cycle;Max_cycle;Signal;HPM_P1;HPM_P2
2023/07/07 00:02:24;;;;;;;12.80;10.63;;;;;;;;;;5044047;28;20412;-82
2023/07/07 00:04:52;;;;;;;11.77;10.50;;;;;;;;;;5037905;28;20766;-84
2023/07/07 00:07:21;;;;;;;15.33;10.73;;;;;;;;;;5047049;28;20736;-83
2023/07/07 00:09:48;;;;;;;12.13;10.20;;;;;;;;;;5045173;28;20437;-84
2023/07/07 00:12:16;;;;;;;15.40;10.63;;;;;;;;;;5047838;28;20437;-84
2023/07/07 00:14:43;;;;;;;15.30;11.77;;;;;;;;;;5049884;28;20470;-81
2023/07/07 00:17:12;;;;;;;13.27;11.97;;;;;;;;;;5040271;28;20427;-83
2023/07/07 00:19:39;;;;;;;13.43;11.33;;;;;;;;;;5054043;28;20427;-82
2023/07/07 00:22:07;;;;;;;13.67;12.37;;;;;;;;;;5038943;28;20477;-86
2023/07/07 00:24:35;;;;;;;14.90;13.00;;;;;;;;;;5040577;28;20549;-83
2023/07/07 00:27:03;;;;;;;12.93;11.50;;;;;;;;;;5048987;28;20445;-82
2023/07/07 00:29:31;;;;;;;16.27;13.83;;;;;;;;;;5047588;28;20445;-83
2023/07/07 00:31:58;;;;;;;13.73;12.33;;;;;;;;;;5054760;28;20745;-81
2023/07/07 00:34:27;;;;;;;16.13;13.23;;;;;;;;;;5038431;28;20450;-82
2023/07/07 00:36:55;;;;;;;13.30;12.00;;;;;;;;;;5048087;28;20461;-82
2023/07/07 00:39:22;;;;;;;17.63;12.93;;;;;;;;;;5042741;28;20434;-83
2023/07/07 00:41:50;;;;;;;16.93;13.47;;;;;;;;;;5039681;28;20488;-82
2023/07/07 00:44:17;;;;;;;20.30;12.70;;;;;;;;;;5039099;28;20615;-84
2023/07/07 00:46:45;;;;;;;17.90;14.57;;;;;;;;;;5051923;28;20504;-82
2023/07/07 00:49:15;;;;;;;15.30;13.60;;;;;;;;;;5057326;28;20645;-84
2023/07/07 00:51:45;;;;;;;16.30;12.63;;;;;;;;;;5040918;28;20897;-83
2023/07/07 00:54:17;;;;;;;15.37;13.13;;;;;;;;;;5041587;28;20848;-82
2023/07/07 00:56:48;;;;;;;14.33;12.67;;;;;;;;;;5049287;28;20612;-82
2023/07/07 00:59:21;;;;;;;15.67;12.67;;;;;;;;;;5041717;28;20642;-82
2023/07/07 01:01:52;;;;;;;14.67;12.37;;;;;;;;;;5034194;28;20464;-83
2023/07/07 01:04:19;;;;;;;12.43;10.90;;;;;;;;;;5040834;28;20460;-82
2023/07/07 01:06:49;;;;;;;18.30;13.33;;;;;;;;;;5051502;28;20453;-81
2023/07/07 01:09:16;;;;;;;13.80;11.67;;;;;;;;;;5040731;28;20457;-82
2023/07/07 01:11:45;;;;;;;14.83;12.63;;;;;;;;;;5037210;28;20461;-83
2023/07/07 01:14:16;;;;;;;12.13;11.03;;;;;;;;;;5044999;28;20439;-83
2023/07/07 01:16:44;;;;;;;13.87;11.27;;;;;;;;;;5052376;28;20480;-86
2023/07/07 01:19:26;;;;;;;14.03;10.40;;;;;;;;;;5055902;28;20445;-83
2023/07/07 01:22:04;;;;;;;14.07;10.23;;;;;;;;;;5042484;28;20441;-83
2023/07/07 01:24:41;;;;;;;13.87;9.43;;;;;;;;;;5047488;28;20487;-82
2023/07/07 01:27:10;;;;;;;10.17;9.13;;;;;;;;;;5026590;28;20445;-82
2023/07/07 01:29:43;;;;;;;13.10;9.77;;;;;;;;;;5035829;28;20505;-81
2023/07/07 01:32:14;;;;;;;14.97;10.53;;;;;;;;;;5038779;28;20750;-83
2023/07/07 01:34:42;;;;;;;10.97;9.97;;;;;;;;;;5049812;28;20451;-83
2023/07/07 01:37:09;;;;;;;12.43;10.93;;;;;;;;;;5040311;28;20452;-82
2023/07/07 01:39:37;;;;;;;11.97;9.30;;;;;;;;;;5071477;28;20789;-84
2023/07/07 01:42:10;;;;;;;11.30;10.27;;;;;;;;;;5052022;28;20452;-83
2023/07/07 01:44:56;;;;;;;12.20;11.00;;;;;;;;;;5048061;28;20437;-83
2023/07/07 01:47:26;;;;;;;11.20;9.60;;;;;;;;;;5039037;28;20452;-83
2023/07/07 01:49:56;;;;;;;11.90;9.20;;;;;;;;;;5035812;28;20434;-84
2023/07/07 01:52:30;;;;;;;11.40;10.33;;;;;;;;;;5051559;28;20781;-82
2023/07/07 01:55:00;;;;;;;11.40;10.20;;;;;;;;;;5043330;28;20468;-81
2023/07/07 01:57:28;;;;;;;13.60;11.47;;;;;;;;;;5040533;28;20619;-84
2023/07/07 01:59:56;;;;;;;11.93;10.70;;;;;;;;;;5043873;28;20467;-82
2023/07/07 02:02:24;;;;;;;13.47;9.93;;;;;;;;;;5048479;28;20507;-82
2023/07/07 02:04:52;;;;;;;10.33;9.30;;;;;;;;;;5037640;28;20677;-81
2023/07/07 02:07:20;;;;;;;12.20;10.60;;;;;;;;;;5046925;28;20449;-86
2023/07/07 02:09:49;;;;;;;9.80;8.77;;;;;;;;;;5049020;28;20580;-83
2023/07/07 02:12:17;;;;;;;13.27;10.20;;;;;;;;;;5056613;28;20437;-83
2023/07/07 02:14:44;;;;;;;11.90;9.50;;;;;;;;;;5049094;28;20437;-82
2023/07/07 02:17:25;;;;;;;;;;;;;;;;;;;;;
2023/07/07 02:20:10;;;;;;;16.70;9.57;;;;;;;;;;5049156;28;20235;-86
2023/07/07 02:22:38;;;;;;;16.80;10.13;;;;;;;;;;5045130;28;20488;-82
2023/07/07 02:25:06;;;;;;;14.50;10.87;;;;;;;;;;5042608;28;20501;-82
2023/07/07 02:27:34;;;;;;;11.53;10.23;;;;;;;;;;5049038;28;20468;-82
2023/07/07 02:30:01;;;;;;;12.60;10.30;;;;;;;;;;5046056;28;20467;-85
2023/07/07 02:32:29;;;;;;;10.57;9.30;;;;;;;;;;5044152;28;20454;-83
2023/07/07 02:34:58;;;;;;;9.97;9.13;;;;;;;;;;5051256;28;20979;-81
2023/07/07 02:37:26;;;;;;;14.07;10.30;;;;;;;;;;5048815;28;20516;-86
2023/07/07 02:43:24;;;;;;;11.73;9.47;;;;;;;;;;5011611;28;20497;-82
2023/07/07 02:46:23;;;;;;;9.97;9.07;;;;;;;;;;5014515;28;20455;-81
2023/07/07 02:49:05;;;;;;;11.43;10.27;;;;;;;;;;5052850;28;20469;-83
2023/07/07 02:51:57;;;;;;;11.73;10.07;;;;;;;;;;5050639;28;20464;-81
2023/07/07 02:58:17;;;;;;;9.70;8.73;;;;;;;;;;5055689;28;20441;-82
2023/07/07 03:01:48;;;;;;;16.88;9.10;;;;;;;;;;5038748;28;20200;-81
2023/07/07 03:07:42;;;;;;;;;;;;;;;;;;;;;
2023/07/07 03:10:28;;;;;;;10.43;8.50;;;;;;;;;;5046874;28;20437;-82
2023/07/07 03:13:06;;;;;;;10.80;9.83;;;;;;;;;;5032955;28;20288;-81
2023/07/07 03:16:10;;;;;;;;;;;;;;;;;;;;;
2023/07/07 03:19:22;;;;;;;9.35;8.55;;;;;;;;;;5032824;28;20478;-83
2023/07/07 03:22:15;;;;;;;9.60;8.70;;;;;;;;;;5037010;28;20401;-81
2023/07/07 03:24:54;;;;;;;9.87;8.97;;;;;;;;;;5050172;28;20261;-81
2023/07/07 03:27:30;;;;;;;11.05;9.85;;;;;;;;;;5040272;28;20849;-82
2023/07/07 03:30:25;;;;;;;12.20;10.20;;;;;;;;;;5041437;28;20251;-84
2023/07/07 03:37:13;;;;;;;;;;;;;;;;;;;;;
2023/07/07 03:40:39;;;;;;;11.87;10.40;;;;;;;;;;5046974;28;20856;-83
2023/07/07 03:43:53;;;;;;;10.60;9.40;;;;;;;;;;5052692;28;20427;-83
2023/07/07 03:46:37;;;;;;;11.43;9.20;;;;;;;;;;5048385;28;20448;-84
2023/07/07 03:49:38;;;;;;;10.43;9.43;;;;;;;;;;5051676;28;20511;-82
2023/07/07 03:52:23;;;;;;;10.57;9.47;;;;;;;;;;5053590;28;20565;-81
2023/07/07 03:55:18;;;;;;;12.43;8.50;;;;;;;;;;5053716;28;20441;-84
2023/07/07 03:58:02;;;;;;;9.70;8.17;;;;;;;;;;5035498;28;20483;-83
2023/07/07 04:00:46;;;;;;;13.73;9.07;;;;;;;;;;5044211;28;20979;-83
2023/07/07 04:03:20;;;;;;;9.63;8.83;;;;;;;;;;5046780;28;20850;-83
2023/07/07 04:05:53;;;;;;;8.73;7.90;;;;;;;;;;5049215;28;20453;-81
2023/07/07 04:09:11;;;;;;;11.70;9.20;;;;;;;;;;5052333;28;20437;-84
2023/07/07 04:12:01;;;;;;;15.07;10.90;;;;;;;;;;5049866;28;20449;-82
2023/07/07 04:14:49;;;;;;;13.20;10.40;;;;;;;;;;5036816;28;20440;-82
2023/07/07 04:17:21;;;;;;;13.03;11.80;;;;;;;;;;5057024;28;20535;-86
2023/07/07 04:19:52;;;;;;;13.70;12.17;;;;;;;;;;5039919;28;20416;-83
2023/07/07 04:22:35;;;;;;;;;;;;;;;;;;;;;
2023/07/07 04:25:30;;;;;;;12.87;11.50;;;;;;;;;;5048746;28;20760;-82
2023/07/07 04:28:17;;;;;;;9.63;8.73;;;;;;;;;;5046703;28;20435;-86
2023/07/07 04:30:57;;;;;;;16.30;10.80;;;;;;;;;;5067124;28;20440;-84
2023/07/07 04:33:53;;;;;;;13.80;9.70;;;;;;;;;;5058210;28;20463;-83
2023/07/07 04:36:33;;;;;;;;;;;;;;;;;;;;;
2023/07/07 04:39:57;;;;;;;10.90;9.10;;;;;;;;;;5038389;28;20882;-81
2023/07/07 04:42:28;;;;;;;14.20;10.43;;;;;;;;;;5033446;28;20431;-83
2023/07/07 04:45:17;;;;;;;11.20;10.00;;;;;;;;;;5034305;28;20549;-81
2023/07/07 04:48:09;;;;;;;11.77;10.40;;;;;;;;;;5046993;28;20476;-83
2023/07/07 04:50:41;;;;;;;10.50;8.63;;;;;;;;;;5041671;28;20430;-81
2023/07/07 04:53:16;;;;;;;13.40;11.70;;;;;;;;;;5043468;28;20432;-84
2023/07/07 04:56:26;;;;;;;11.23;10.20;;;;;;;;;;5047513;28;20520;-81
2023/07/07 04:59:20;;;;;;;12.07;10.10;;;;;;;;;;5037142;28;20629;-84
2023/07/07 05:02:22;;;;;;;11.23;10.13;;;;;;;;;;5030252;28;20430;-82
2023/07/07 05:05:15;;;;;;;10.83;9.07;;;;;;;;;;5046320;28;20448;-83
2023/07/07 05:07:55;;;;;;;10.27;9.00;;;;;;;;;;5043030;28;20427;-81
2023/07/07 05:10:28;;;;;;;10.60;9.60;;;;;;;;;;5031133;28;20461;-81
2023/07/07 05:13:11;;;;;;;11.80;9.37;;;;;;;;;;5064505;28;20442;-80
2023/07/07 05:15:42;;;;;;;16.57;9.60;;;;;;;;;;5044965;28;20495;-81
2023/07/07 05:18:12;;;;;;;12.30;9.07;;;;;;;;;;5038042;28;20440;-81
2023/07/07 05:20:50;;;;;;;8.57;7.93;;;;;;;;;;5037749;28;20423;-81
2023/07/07 05:23:20;;;;;;;12.63;10.70;;;;;;;;;;5046957;28;20686;-80
2023/07/07 05:25:51;;;;;;;14.50;10.97;;;;;;;;;;5047559;28;20657;-80
2023/07/07 05:28:21;;;;;;;16.90;12.40;;;;;;;;;;5039731;28;20428;-83
2023/07/07 05:31:00;;;;;;;11.70;9.37;;;;;;;;;;5046877;28;20423;-81
2023/07/07 05:33:29;;;;;;;12.37;9.10;;;;;;;;;;5045528;28;20434;-80
2023/07/07 05:36:01;;;;;;;10.90;8.27;;;;;;;;;;5040911;28;20462;-80
2023/07/07 05:38:32;;;;;;;9.23;8.30;;;;;;;;;;5043039;28;20945;-78
2023/07/07 05:41:06;;;;;;;12.90;10.07;;;;;;;;;;5037435;28;20748;-79
2023/07/07 05:43:44;;;;;;;10.33;9.03;;;;;;;;;;5039759;28;20503;-80
2023/07/07 05:46:16;;;;;;;13.47;10.57;;;;;;;;;;5055242;28;20450;-81
2023/07/07 05:48:51;;;;;;;11.77;10.57;;;;;;;;;;5049552;28;20433;-80
2023/07/07 05:51:19;;;;;;;8.77;7.90;;;;;;;;;;5055581;28;20680;-80
2023/07/07 05:53:50;;;;;;;13.60;8.27;;;;;;;;;;5049540;28;20442;-80
2023/07/07 05:56:21;;;;;;;12.70;8.30;;;;;;;;;;5046924;28;20665;-78
2023/07/07 05:58:53;;;;;;;9.40;7.90;;;;;;;;;;5047370;28;20410;-78
2023/07/07 06:01:33;;;;;;;8.60;7.77;;;;;;;;;;5040667;28;20449;-80
2023/07/07 06:04:11;;;;;;;8.93;7.53;;;;;;;;;;5042709;28;20798;-78
2023/07/07 06:06:46;;;;;;;11.70;7.90;;;;;;;;;;5043119;28;20424;-80
2023/07/07 06:09:24;;;;;;;8.70;7.90;;;;;;;;;;5039521;28;20523;-79
2023/07/07 06:11:56;;;;;;;8.30;7.60;;;;;;;;;;5048806;28;20441;-80
2023/07/07 06:14:24;;;;;;;8.23;7.43;;;;;;;;;;5040765;28;20770;-79
2023/07/07 06:16:56;;;;;;;9.43;7.77;;;;;;;;;;5057155;28;20471;-81
2023/07/07 06:19:31;;;;;;;10.83;7.80;;;;;;;;;;5039013;28;20433;-78
2023/07/07 06:22:13;;;;;;;12.50;9.70;;;;;;;;;;5041624;28;20454;-78
2023/07/07 06:24:41;;;;;;;9.63;8.73;;;;;;;;;;5050829;28;20571;-80
2023/07/07 06:27:08;;;;;;;13.83;8.90;;;;;;;;;;5044041;28;20468;-79
2023/07/07 06:29:36;;;;;;;9.60;8.53;;;;;;;;;;5050902;28;20772;-78
2023/07/07 06:32:03;;;;;;;9.00;8.10;;;;;;;;;;5038757;28;20479;-78
2023/07/07 06:34:30;;;;;;;11.10;7.97;;;;;;;;;;5050888;28;20412;-79
2023/07/07 06:36:59;;;;;;;11.17;9.10;;;;;;;;;;5051511;28;20496;-79
2023/07/07 06:39:27;;;;;;;12.80;8.10;;;;;;;;;;5051565;28;20817;-80
2023/07/07 06:41:55;;;;;;;9.50;8.73;;;;;;;;;;5048122;28;20434;-80
2023/07/07 06:44:23;;;;;;;9.43;8.53;;;;;;;;;;5043350;28;20666;-79
2023/07/07 06:46:50;;;;;;;9.37;8.33;;;;;;;;;;5040524;28;20454;-80
2023/07/07 06:49:18;;;;;;;11.83;9.47;;;;;;;;;;5039841;28;20466;-80
2023/07/07 06:51:46;;;;;;;9.93;6.90;;;;;;;;;;5050210;28;20504;-78
2023/07/07 06:54:13;;;;;;;8.50;7.63;;;;;;;;;;5044268;28;20779;-78
2023/07/07 06:56:41;;;;;;;9.37;8.57;;;;;;;;;;5039237;28;20452;-78
2023/07/07 06:59:08;;;;;;;9.67;7.90;;;;;;;;;;5038887;28;20657;-79
2023/07/07 07:01:36;;;;;;;7.50;6.80;;;;;;;;;;5043318;28;20487;-78
2023/07/07 07:04:03;;;;;;;7.07;6.47;;;;;;;;;;5043351;28;20420;-79
2023/07/07 07:06:32;;;;;;;6.57;6.07;;;;;;;;;;5056026;28;20445;-80
2023/07/07 07:09:00;;;;;;;7.07;6.43;;;;;;;;;;5046473;28;20446;-83
2023/07/07 07:11:27;;;;;;;9.93;7.17;;;;;;;;;;5044586;28;20424;-79
2023/07/07 07:13:55;;;;;;;6.50;5.90;;;;;;;;;;5041199;28;20437;-79
2023/07/07 07:16:23;;;;;;;6.03;5.53;;;;;;;;;;5042438;28;20550;-82
2023/07/07 07:18:50;;;;;;;6.20;5.70;;;;;;;;;;5048103;28;20735;-78
2023/07/07 07:21:20;;;;;;;7.57;5.87;;;;;;;;;;5045444;28;20412;-79
2023/07/07 07:23:50;;;;;;;6.53;6.00;;;;;;;;;;5063129;28;20470;-79
2023/07/07 07:26:18;;;;;;;7.00;6.30;;;;;;;;;;5044107;28;20469;-78
2023/07/07 07:28:48;;;;;;;8.23;5.20;;;;;;;;;;5047073;28;20450;-80
2023/07/07 07:31:15;;;;;;;7.07;6.53;;;;;;;;;;5037924;28;20445;-84
2023/07/07 07:33:43;;;;;;;5.03;4.73;;;;;;;;;;5044684;28;20468;-82
2023/07/07 07:36:10;;;;;;;5.67;5.17;;;;;;;;;;5031753;28;20460;-80
2023/07/07 07:38:38;;;;;;;6.00;5.60;;;;;;;;;;5035565;28;20527;-81
2023/07/07 07:41:05;;;;;;;5.90;5.50;;;;;;;;;;5047852;28;20484;-79
2023/07/07 07:43:32;;;;;;;7.87;5.30;;;;;;;;;;5062515;28;20414;-79
2023/07/07 07:46:00;;;;;;;5.90;5.50;;;;;;;;;;5060767;28;20493;-85
2023/07/07 07:48:27;;;;;;;5.93;5.50;;;;;;;;;;5052322;28;20469;-80
2023/07/07 07:50:55;;;;;;;5.87;5.27;;;;;;;;;;5041196;28;20691;-82
2023/07/07 07:53:22;;;;;;;6.00;5.57;;;;;;;;;;5047382;28;20429;-88
2023/07/07 07:55:50;;;;;;;6.53;5.50;;;;;;;;;;5050837;28;20480;-80
2023/07/07 07:58:17;;;;;;;5.23;4.70;;;;;;;;;;5046963;28;20481;-86
2023/07/07 08:00:44;;;;;;;5.87;5.10;;;;;;;;;;5037618;28;20456;-84
2023/07/07 08:03:12;;;;;;;4.80;4.40;;;;;;;;;;5043723;28;20491;-84
2023/07/07 08:05:40;;;;;;;6.30;5.60;;;;;;;;;;5039663;28;20481;-79
2023/07/07 08:08:08;;;;;;;5.23;4.80;;;;;;;;;;5048687;28;20450;-83
2023/07/07 08:10:36;;;;;;;5.57;5.07;;;;;;;;;;5041484;28;20449;-81
2023/07/07 08:13:04;;;;;;;5.97;5.57;;;;;;;;;;5041809;28;20465;-80
2023/07/07 08:15:34;;;;;;;5.13;4.83;;;;;;;;;;5044126;28;20653;-81
2023/07/07 08:18:01;;;;;;;5.40;5.00;;;;;;;;;;5051061;28;20473;-82
2023/07/07 08:20:30;;;;;;;6.03;5.63;;;;;;;;;;5042895;28;20769;-83
2023/07/07 08:22:58;;;;;;;6.13;5.63;;;;;;;;;;5049524;28;20498;-84
2023/07/07 08:25:27;;;;;;;5.77;5.37;;;;;;;;;;5056910;28;20443;-81
2023/07/07 08:27:55;;;;;;;5.47;5.07;;;;;;;;;;5043752;28;20774;-80
2023/07/07 08:30:25;;;;;;;7.13;5.00;;;;;;;;;;5046046;28;20445;-79
2023/07/07 08:32:54;;;;;;;5.93;5.53;;;;;;;;;;5039319;28;20916;-79
2023/07/07 08:35:22;;;;;;;6.60;5.70;;;;;;;;;;5048797;28;20438;-86
2023/07/07 08:37:50;;;;;;;5.50;5.10;;;;;;;;;;5054598;28;20486;-82
2023/07/07 08:40:21;;;;;;;6.37;5.77;;;;;;;;;;5052502;28;20433;-78
2023/07/07 08:42:48;;;;;;;6.03;5.20;;;;;;;;;;5042962;28;20789;-84
2023/07/07 08:45:22;;;;;;;7.33;5.50;;;;;;;;;;5047834;28;20519;-81
2023/07/07 08:48:10;;;;;;;5.10;4.70;;;;;;;;;;5053673;28;20440;-85
2023/07/07 08:50:43;;;;;;;5.60;5.20;;;;;;;;;;5046648;28;20438;-81
2023/07/07 08:53:30;;;;;;;5.50;5.10;;;;;;;;;;5047886;28;20439;-81
2023/07/07 08:55:58;;;;;;;5.83;5.43;;;;;;;;;;5055115;28;20594;-82
2023/07/07 08:58:40;;;;;;;5.77;5.20;;;;;;;;;;5051728;28;20484;-80
2023/07/07 09:01:28;;;;;;;4.73;4.43;;;;;;;;;;5055436;28;20433;-81
2023/07/07 09:03:55;;;;;;;6.10;5.47;;;;;;;;;;5045611;28;20438;-82
2023/07/07 09:06:35;;;;;;;5.87;5.50;;;;;;;;;;5039306;28;20497;-81
2023/07/07 09:09:23;;;;;;;5.40;4.90;;;;;;;;;;5049267;28;20479;-88
2023/07/07 09:12:02;;;;;;;5.10;4.80;;;;;;;;;;5054485;28;20499;-81
2023/07/07 09:14:30;;;;;;;5.97;5.47;;;;;;;;;;5050945;28;20769;-79
2023/07/07 09:17:00;;;;;;;5.73;5.33;;;;;;;;;;5059077;28;20508;-85
2023/07/07 09:19:33;;;;;;;5.77;5.27;;;;;;;;;;5050787;28;20491;-82
2023/07/07 09:22:03;;;;;;;5.07;4.77;;;;;;;;;;5039878;28;20642;-83
2023/07/07 09:24:34;;;;;;;5.60;5.10;;;;;;;;;;5044740;28;20438;-81
2023/07/07 09:27:08;;;;;;;5.17;4.80;;;;;;;;;;5039809;28;20438;-79
2023/07/07 09:29:36;;;;;;;5.40;5.00;;;;;;;;;;5037321;28;20663;-82
2023/07/07 09:32:03;;;;;;;5.20;4.90;;;;;;;;;;5044305;28;20764;-79
2023/07/07 09:34:32;;;;;;;5.60;5.20;;;;;;;;;;5046884;28;20460;-83
2023/07/07 09:37:14;;;;;;;4.73;4.30;;;;;;;;;;5038864;28;20489;-84
2023/07/07 09:39:51;;;;;;;4.70;4.30;;;;;;;;;;5047144;28;20432;-80
2023/07/07 09:42:28;;;;;;;7.00;5.13;;;;;;;;;;5054022;28;20440;-79
2023/07/07 09:44:55;;;;;;;5.90;5.40;;;;;;;;;;5052294;28;20471;-80
2023/07/07 09:47:41;;;;;;;5.40;5.00;;;;;;;;;;5042198;28;20460;-80
2023/07/07 09:50:35;;;;;;;6.23;5.67;;;;;;;;;;5041231;28;20457;-82
2023/07/07 09:53:15;;;;;;;5.43;4.73;;;;;;;;;;5045438;28;20845;-80
2023/07/07 09:55:50;;;;;;;5.30;4.90;;;;;;;;;;5027433;28;20769;-78
2023/07/07 09:58:24;;;;;;;4.90;4.50;;;;;;;;;;5040410;28;20702;-81
2023/07/07 10:00:53;;;;;;;5.27;4.87;;;;;;;;;;5047718;28;20437;-83
2023/07/07 10:03:23;;;;;;;5.20;4.70;;;;;;;;;;5053426;28;20456;-81
2023/07/07 10:05:52;;;;;;;5.30;4.80;;;;;;;;;;5054065;28;20504;-82
2023/07/07 10:08:19;;;;;;;8.17;4.50;;;;;;;;;;5042544;28;20441;-80
2023/07/07 10:10:53;;;;;;;5.60;5.07;;;;;;;;;;5045781;28;20466;-82
2023/07/07 10:13:21;;;;;;;5.33;4.77;;;;;;;;;;5030405;28;20512;-80
2023/07/07 10:15:51;;;;;;;5.47;4.97;;;;;;;;;;5045984;28;20684;-80
2023/07/07 10:18:23;;;;;;;5.70;5.30;;;;;;;;;;5034267;28;20553;-82
2023/07/07 10:20:51;;;;;;;5.27;4.87;;;;;;;;;;5046290;28;20456;-81
2023/07/07 10:23:18;;;;;;;7.70;4.73;;;;;;;;;;5046604;28;20548;-82
2023/07/07 10:25:46;;;;;;;6.93;5.37;;;;;;;;;;5046807;28;20491;-78
2023/07/07 10:28:16;;;;;;;5.47;5.00;;;;;;;;;;5053655;28;20457;-80
2023/07/07 10:30:44;;;;;;;5.20;4.70;;;;;;;;;;5057572;28;20479;-87
2023/07/07 10:33:13;;;;;;;5.10;4.70;;;;;;;;;;5054449;28;20448;-80
2023/07/07 10:35:41;;;;;;;4.93;4.53;;;;;;;;;;5048448;28;20514;-78
2023/07/07 10:38:09;;;;;;;6.27;4.63;;;;;;;;;;5051486;28;20476;-81
2023/07/07 10:40:36;;;;;;;5.10;4.80;;;;;;;;;;5047368;28;20692;-79
2023/07/07 10:43:06;;;;;;;5.37;4.93;;;;;;;;;;5045091;28;20630;-79
2023/07/07 10:45:34;;;;;;;5.20;4.73;;;;;;;;;;5048614;28;20469;-85
2023/07/07 10:48:03;;;;;;;5.47;5.00;;;;;;;;;;5055005;28;20791;-84
2023/07/07 10:50:37;;;;;;;5.20;4.80;;;;;;;;;;5041494;28;20416;-82
2023/07/07 10:53:11;;;;;;;5.00;4.70;;;;;;;;;;5078227;28;20408;-80
2023/07/07 10:55:47;;;;;;;5.33;5.00;;;;;;;;;;5054174;28;20445;-81
2023/07/07 10:58:25;;;;;;;6.00;5.60;;;;;;;;;;5056991;28;20713;-79
2023/07/07 11:00:52;;;;;;;4.30;4.00;;;;;;;;;;5049640;28;20404;-81
2023/07/07 11:03:35;;;;;;;7.10;4.83;;;;;;;;;;5052499;28;20422;-81
2023/07/07 11:06:06;;;;;;;9.13;6.13;;;;;;;;;;5049307;28;20440;-83
2023/07/07 11:08:51;;;;;;;4.50;4.20;;;;;;;;;;5040903;28;20492;-89
2023/07/07 11:11:42;;;;;;;4.60;4.30;;;;;;;;;;5041664;28;20473;-81
2023/07/07 11:14:15;;;;;;;7.07;4.30;;;;;;;;;;5043512;28;20458;-79
2023/07/07 11:16:46;;;;;;;5.40;4.37;;;;;;;;;;5055502;28;20495;-82
2023/07/07 11:19:46;;;;;;;4.73;4.43;;;;;;;;;;5053463;28;20500;-83
2023/07/07 11:22:39;;;;;;;4.60;4.20;;;;;;;;;;5047560;28;20479;-79
2023/07/07 11:25:21;;;;;;;4.87;4.47;;;;;;;;;;5036974;28;20485;-87
2023/07/07 11:28:00;;;;;;;5.27;3.90;;;;;;;;;;5053147;28;20749;-83
2023/07/07 11:30:37;;;;;;;4.67;4.27;;;;;;;;;;5051326;28;20429;-83
2023/07/07 11:33:27;;;;;;;5.37;4.87;;;;;;;;;;5054130;28;20407;-80
2023/07/07 11:36:12;;;;;;;4.80;4.40;;;;;;;;;;5053461;28;20453;-77
2023/07/07 11:38:43;;;;;;;4.70;4.40;;;;;;;;;;5047576;28;20866;-83
2023/07/07 11:41:17;;;;;;;4.73;4.33;;;;;;;;;;5054204;28;20459;-80
2023/07/07 11:43:56;;;;;;;5.40;4.90;;;;;;;;;;5037117;28;20788;-79
2023/07/07 11:46:34;;;;;;;5.33;4.83;;;;;;;;;;5053485;28;20826;-81
2023/07/07 11:49:18;;;;;;;4.80;4.40;;;;;;;;;;5035978;28;20510;-86
2023/07/07 11:51:50;;;;;;;6.97;5.00;;;;;;;;;;5052636;28;20501;-79
2023/07/07 11:54:27;;;;;;;5.53;5.17;;;;;;;;;;5040596;28;20483;-84
2023/07/07 11:56:54;;;;;;;5.40;5.00;;;;;;;;;;5042051;28;20463;-80
2023/07/07 11:59:31;;;;;;;4.50;4.20;;;;;;;;;;5053439;28;20486;-81
2023/07/07 12:01:59;;;;;;;4.70;4.40;;;;;;;;;;5041846;28;20436;-81
2023/07/07 12:04:29;;;;;;;6.50;4.47;;;;;;;;;;5065345;28;20445;-83
2023/07/07 12:07:00;;;;;;;4.50;4.20;;;;;;;;;;5053349;28;20516;-81
2023/07/07 12:09:31;;;;;;;4.23;3.90;;;;;;;;;;5049822;28;20422;-80
2023/07/07 12:12:10;;;;;;;4.33;4.03;;;;;;;;;;5054448;28;20440;-79
2023/07/07 12:14:48;;;;;;;4.60;4.20;;;;;;;;;;5039553;28;20446;-80
2023/07/07 12:17:18;;;;;;;4.40;4.10;;;;;;;;;;5053708;28;20504;-84
2023/07/07 12:19:55;;;;;;;4.77;4.47;;;;;;;;;;5047431;28;20451;-78
2023/07/07 12:22:27;;;;;;;6.07;5.17;;;;;;;;;;5039206;28;20416;-82
2023/07/07 12:24:58;;;;;;;5.47;5.00;;;;;;;;;;5047217;28;20497;-81
2023/07/07 12:27:41;;;;;;;4.40;4.10;;;;;;;;;;5051051;28;20496;-87
2023/07/07 12:30:18;;;;;;;4.10;3.80;;;;;;;;;;5047642;28;20768;-81
2023/07/07 12:32:46;;;;;;;4.20;3.97;;;;;;;;;;5045855;28;20532;-80
2023/07/07 12:35:31;;;;;;;4.90;4.50;;;;;;;;;;5041469;28;20416;-83
2023/07/07 12:38:06;;;;;;;4.80;4.50;;;;;;;;;;5038857;28;20493;-85
2023/07/07 12:40:35;;;;;;;4.60;4.20;;;;;;;;;;5036523;28;20435;-86
2023/07/07 12:43:21;;;;;;;4.30;3.90;;;;;;;;;;5050548;28;20437;-81
2023/07/07 12:45:48;;;;;;;5.37;4.83;;;;;;;;;;5046933;28;20439;-81
2023/07/07 12:48:19;;;;;;;5.03;4.63;;;;;;;;;;5045993;28;20529;-79
2023/07/07 12:50:48;;;;;;;4.60;4.30;;;;;;;;;;5039312;28;20457;-81
2023/07/07 12:53:22;;;;;;;4.17;3.97;;;;;;;;;;5043387;28;20533;-79
2023/07/07 12:56:08;;;;;;;5.20;4.80;;;;;;;;;;5044128;28;20421;-85
2023/07/07 12:58:52;;;;;;;4.90;4.60;;;;;;;;;;5032027;28;20509;-80
2023/07/07 13:01:28;;;;;;;6.07;4.40;;;;;;;;;;5038911;28;20416;-81
2023/07/07 13:04:01;;;;;;;4.80;4.50;;;;;;;;;;5041004;28;20433;-86
2023/07/07 13:06:32;;;;;;;4.50;4.10;;;;;;;;;;5034664;28;20452;-85
2023/07/07 13:09:16;;;;;;;4.37;4.07;;;;;;;;;;5043081;28;20485;-80
2023/07/07 13:11:47;;;;;;;5.43;4.97;;;;;;;;;;5040274;28;20419;-81
2023/07/07 13:14:33;;;;;;;4.80;4.50;;;;;;;;;;5040335;28;20505;-82
2023/07/07 13:17:03;;;;;;;5.50;5.00;;;;;;;;;;5046553;28;20560;-82
2023/07/07 13:19:34;;;;;;;5.30;4.83;;;;;;;;;;5048173;28;20544;-82
2023/07/07 13:22:20;;;;;;;4.40;4.10;;;;;;;;;;5038064;28;20437;-82
2023/07/07 13:24:47;;;;;;;6.23;4.73;;;;;;;;;;5037851;28;20483;-83
2023/07/07 13:27:17;;;;;;;4.57;4.27;;;;;;;;;;5038161;28;20582;-80
2023/07/07 13:29:45;;;;;;;4.43;4.10;;;;;;;;;;5049004;28;20460;-84
2023/07/07 13:32:25;;;;;;;4.70;4.30;;;;;;;;;;5046964;28;20505;-80
2023/07/07 13:34:53;;;;;;;4.97;4.57;;;;;;;;;;5048752;28;20512;-87
2023/07/07 13:37:20;;;;;;;4.50;4.20;;;;;;;;;;5042840;28;20533;-81
2023/07/07 13:39:48;;;;;;;4.80;4.50;;;;;;;;;;5051226;28;20552;-87
2023/07/07 13:42:32;;;;;;;4.50;4.10;;;;;;;;;;5050638;28;20476;-81
2023/07/07 13:45:05;;;;;;;5.00;4.70;;;;;;;;;;5041636;28;20753;-80
2023/07/07 13:47:33;;;;;;;4.67;4.33;;;;;;;;;;5037724;28;20800;-80
2023/07/07 13:50:04;;;;;;;7.30;4.80;;;;;;;;;;5051252;28;20817;-79
2023/07/07 13:52:32;;;;;;;6.93;4.33;;;;;;;;;;5047116;28;20438;-82
2023/07/07 13:55:02;;;;;;;4.57;4.27;;;;;;;;;;5051301;28;20463;-81
2023/07/07 13:57:33;;;;;;;4.80;4.40;;;;;;;;;;5054773;28;20432;-80
2023/07/07 14:00:00;;;;;;;4.73;4.33;;;;;;;;;;5050862;28;20473;-83
2023/07/07 14:02:28;;;;;;;5.80;4.40;;;;;;;;;;5047389;28;20788;-84
2023/07/07 14:05:03;;;;;;;4.50;4.00;;;;;;;;;;5053577;28;20429;-85
2023/07/07 14:07:35;;;;;;;3.70;3.50;;;;;;;;;;5058265;28;20416;-85
2023/07/07 14:10:12;;;;;;;4.33;3.93;;;;;;;;;;5048627;28;20437;-81
2023/07/07 14:12:41;;;;;;;5.90;5.10;;;;;;;;;;5051014;28;20445;-83
2023/07/07 14:15:15;;;;;;;6.07;4.40;;;;;;;;;;5053390;28;20488;-84
2023/07/07 14:17:43;;;;;;;4.60;4.30;;;;;;;;;;5058764;28;20448;-84
2023/07/07 14:20:25;;;;;;;4.80;4.50;;;;;;;;;;5046741;28;20445;-83
2023/07/07 14:22:56;;;;;;;4.17;3.97;;;;;;;;;;5054797;28;20441;-84
2023/07/07 14:25:28;;;;;;;4.80;4.50;;;;;;;;;;5048224;28;20787;-90
2023/07/07 14:28:00;;;;;;;4.90;4.40;;;;;;;;;;5054364;28;20430;-83
2023/07/07 14:30:28;;;;;;;7.20;4.23;;;;;;;;;;5051724;28;20466;-83
2023/07/07 14:32:56;;;;;;;5.80;5.30;;;;;;;;;;5044228;28;20460;-84
2023/07/07 14:35:36;;;;;;;4.57;4.23;;;;;;;;;;5043458;28;20451;-82
2023/07/07 14:38:42;;;;;;;3.93;3.63;;;;;;;;;;5042184;28;20476;-83
2023/07/07 14:41:23;;;;;;;5.03;4.53;;;;;;;;;;5006978;28;20462;-86
2023/07/07 14:43:53;;;;;;;7.83;4.30;;;;;;;;;;5045818;28;20452;-87
2023/07/07 14:46:34;;;;;;;5.27;4.17;;;;;;;;;;5043439;28;20512;-85
2023/07/07 14:49:19;;;;;;;5.00;4.50;;;;;;;;;;5048759;28;20480;-88
2023/07/07 14:51:50;;;;;;;4.07;3.87;;;;;;;;;;5041900;28;20760;-84
2023/07/07 14:54:20;;;;;;;4.23;4.03;;;;;;;;;;5053428;28;20497;-87
2023/07/07 14:57:04;;;;;;;4.80;4.50;;;;;;;;;;5064184;28;20454;-84
2023/07/07 14:59:35;;;;;;;5.13;4.70;;;;;;;;;;5047189;28;20456;-86
2023/07/07 15:02:28;;;;;;;5.27;4.87;;;;;;;;;;5052182;28;20497;-86
2023/07/07 15:05:15;;;;;;;5.10;4.80;;;;;;;;;;5053470;28;20412;-85
2023/07/07 15:07:43;;;;;;;5.23;4.67;;;;;;;;;;5052831;28;20500;-86
2023/07/07 15:10:11;;;;;;;5.20;4.77;;;;;;;;;;5041374;28;20425;-84
2023/07/07 15:12:44;;;;;;;4.70;4.30;;;;;;;;;;5049982;28;20697;-83
2023/07/07 15:15:16;;;;;;;5.03;4.13;;;;;;;;;;5042277;28;20441;-85
2023/07/07 15:17:43;;;;;;;4.80;4.40;;;;;;;;;;5047671;28;20454;-83
2023/07/07 15:20:15;;;;;;;3.63;3.43;;;;;;;;;;5040435;28;20863;-86
2023/07/07 15:22:44;;;;;;;4.80;4.13;;;;;;;;;;5041826;28;20412;-84
2023/07/07 15:25:11;;;;;;;4.30;4.00;;;;;;;;;;5038270;28;20457;-84
2023/07/07 15:27:39;;;;;;;4.73;4.43;;;;;;;;;;5063427;28;20760;-84
2023/07/07 15:30:27;;;;;;;4.27;3.97;;;;;;;;;;5043380;28;20428;-83
2023/07/07 15:32:55;;;;;;;4.47;4.00;;;;;;;;;;5048918;28;20434;-84
2023/07/07 15:35:22;;;;;;;7.20;4.40;;;;;;;;;;5054493;28;20412;-83
2023/07/07 15:37:52;;;;;;;4.07;3.77;;;;;;;;;;5055232;28;20591;-84
2023/07/07 15:40:22;;;;;;;4.30;4.00;;;;;;;;;;5042565;28;20597;-83